Time;durP1;ratioP1;P1;durP2;ratioP2;P2;SDS_P1;SDS_P2;PMS_P1;PMS_P2;Temp;Humidity;BMP_temperature;BMP_pressure;BME280_temperature;BME280_humidity;BME280_pressure;Samples;Min_cycle;Max_cycle;Signal;HPM_P1;HPM_P2
2023/08/01 00:00:10;;;;;;;14.63;4.75;;;16.80;99.90;;;;;;4904084;28;40289;-78
2023/08/01 00:02:38;;;;;;;14.02;4.15;;;16.80;99.90;;;;;;4906897;29;38495;-77
2023/08/01 00:05:04;;;;;;;9.35;4.03;;;16.80;99.90;;;;;;4926939;28;36939;-78
2023/08/01 00:07:30;;;;;;;11.77;3.72;;;16.80;99.90;;;;;;4924851;28;38245;-78
2023/08/01 00:09:57;;;;;;;12.68;3.58;;;16.80;99.90;;;;;;4912988;29;37889;-78
2023/08/01 00:12:24;;;;;;;12.63;3.85;;;16.80;99.90;;;;;;4923281;28;38274;-78
2023/08/01 00:14:51;;;;;;;13.27;4.10;;;16.80;99.90;;;;;;4915617;29;37981;-77
2023/08/01 00:17:17;;;;;;;15.30;4.20;;;16.80;99.90;;;;;;4915590;28;37582;-77
2023/08/01 00:19:43;;;;;;;10.38;3.13;;;16.80;99.90;;;;;;4919823;28;39401;-77
2023/08/01 00:22:09;;;;;;;9.43;3.65;;;16.90;99.90;;;;;;4928177;28;39022;-77
2023/08/01 00:24:36;;;;;;;18.55;4.05;;;16.80;99.90;;;;;;4923358;28;37013;-78
2023/08/01 00:27:02;;;;;;;10.80;3.38;;;16.80;99.90;;;;;;4913319;29;39019;-78
2023/08/01 00:29:29;;;;;;;14.80;4.45;;;16.80;99.90;;;;;;4925463;28;38996;-77
2023/08/01 00:31:55;;;;;;;11.18;3.67;;;16.70;99.90;;;;;;4926828;28;39511;-78
2023/08/01 00:34:21;;;;;;;11.98;3.33;;;16.70;99.90;;;;;;4922855;28;36985;-77
2023/08/01 00:36:49;;;;;;;10.70;3.95;;;16.70;99.90;;;;;;4924865;28;39826;-77
2023/08/01 00:39:15;;;;;;;7.38;3.33;;;16.70;99.90;;;;;;4903545;28;39369;-78
2023/08/01 00:41:41;;;;;;;10.13;4.13;;;16.70;99.90;;;;;;4909752;29;37511;-78
2023/08/01 00:44:07;;;;;;;17.25;4.22;;;16.60;99.90;;;;;;4925621;29;37156;-78
2023/08/01 00:46:33;;;;;;;11.23;4.13;;;16.60;99.90;;;;;;4924748;28;37579;-78
2023/08/01 00:49:00;;;;;;;11.00;3.63;;;16.60;99.90;;;;;;4927387;28;39757;-78
2023/08/01 00:51:27;;;;;;;11.02;4.10;;;16.60;99.90;;;;;;4924611;29;38635;-78
2023/08/01 00:53:54;;;;;;;9.82;3.53;;;16.60;99.90;;;;;;4914040;29;37858;-78
2023/08/01 00:56:20;;;;;;;11.82;4.00;;;16.50;99.90;;;;;;4935985;28;39503;-78
2023/08/01 00:58:46;;;;;;;12.63;3.92;;;16.50;99.90;;;;;;4913529;29;38495;-79
2023/08/01 01:30:06;;;;;;;12.50;3.90;;;16.60;99.90;;;;;;5890429;23;21634;-80
2023/08/01 01:48:08;;;;;;;13.77;4.32;;;16.70;99.90;;;;;;5751819;23;20059;-80
2023/08/01 01:53:10;;;;;;;11.77;4.15;;;16.70;99.90;;;;;;5654482;23;20036;-79
2023/08/01 01:55:37;;;;;;;14.88;4.47;;;16.70;99.90;;;;;;4958447;28;39204;-80
2023/08/01 01:58:03;;;;;;;15.63;4.63;;;16.70;99.90;;;;;;4963528;28;38935;-80
2023/08/01 02:01:21;;;;;;;8.60;3.75;;;16.70;99.90;;;;;;4961923;28;36915;-80
2023/08/01 02:03:50;;;;;;;13.52;3.45;;;16.80;99.90;;;;;;4960491;28;48891;-80
2023/08/01 02:06:17;;;;;;;17.65;4.40;;;16.80;99.90;;;;;;4958954;28;38244;-81
2023/08/01 02:58:05;;;;;;;15.75;5.32;;;16.70;99.90;;;;;;5534860;23;20063;-81
2023/08/01 03:00:45;;;;;;;22.75;6.93;;;16.70;99.90;;;;;;4960917;28;38612;-81
2023/08/01 03:03:52;;;;;;;20.27;6.43;;;16.70;99.90;;;;;;4955327;28;36831;-81
2023/08/01 03:06:38;;;;;;;15.32;5.75;;;16.70;99.90;;;;;;4961431;28;39397;-80
2023/08/01 03:43:44;;;;;;;20.10;6.95;;;16.70;99.90;;;;;;5490202;23;20044;-81
2023/08/01 03:46:13;;;;;;;13.70;5.80;;;16.70;99.90;;;;;;4959552;28;36547;-79
2023/08/01 03:48:39;;;;;;;14.82;5.95;;;16.60;99.90;;;;;;4963911;28;40356;-80
2023/08/01 03:51:08;;;;;;;15.63;5.32;;;16.60;99.90;;;;;;4977131;28;40316;-79
2023/08/01 03:53:34;;;;;;;14.88;5.85;;;16.60;99.90;;;;;;4977876;28;40011;-80
2023/08/01 03:56:05;;;;;;;17.75;6.03;;;16.50;99.90;;;;;;4976262;28;37862;-79
2023/08/01 03:58:36;;;;;;;13.82;5.32;;;16.50;99.90;;;;;;4957577;28;48506;-81
2023/08/01 04:01:29;;;;;;;16.13;5.77;;;16.50;99.90;;;;;;4949044;28;38758;-80
2023/08/01 04:04:02;;;;;;;21.13;5.20;;;16.50;99.90;;;;;;4953426;28;39768;-80
2023/08/01 04:06:33;;;;;;;17.10;5.13;;;16.50;99.90;;;;;;4939587;28;48839;-79
2023/08/01 04:09:10;;;;;;;16.33;5.80;;;16.50;99.90;;;;;;4961567;28;37548;-79
2023/08/01 04:11:54;;;;;;;13.98;5.43;;;16.50;99.90;;;;;;4959275;28;50104;-80
2023/08/01 04:14:20;;;;;;;16.15;5.80;;;16.50;99.90;;;;;;4933009;28;38427;-80
2023/08/01 04:16:56;;;;;;;13.55;5.53;;;16.50;99.90;;;;;;4959511;28;38521;-80
2023/08/01 04:19:47;;;;;;;16.95;5.82;;;16.50;99.90;;;;;;4949973;28;39362;-80
2023/08/01 04:22:26;;;;;;;16.23;5.05;;;16.50;99.90;;;;;;4935814;28;37199;-80
2023/08/01 04:24:54;;;;;;;13.63;5.20;;;16.50;99.90;;;;;;4956883;28;38881;-81
2023/08/01 04:27:21;;;;;;;15.15;5.45;;;16.50;99.90;;;;;;4961709;28;37312;-80
2023/08/01 04:29:50;;;;;;;18.67;5.47;;;16.50;99.90;;;;;;4968344;28;38768;-79
2023/08/01 04:46:25;;;;;;;10.10;4.53;;;16.50;99.90;;;;;;5567308;23;20036;-80
2023/08/01 05:08:14;;;;;;;;;;;16.50;99.90;;;;;;5430534;23;20035;-80
2023/08/01 05:10:41;;;;;;;14.98;4.50;;;16.50;99.90;;;;;;4941475;28;48579;-81
2023/08/01 05:22:27;;;;;;;12.45;4.45;;;16.60;99.90;;;;;;5965409;23;20064;31
2023/08/01 05:24:58;;;;;;;9.50;3.58;;;16.60;99.90;;;;;;4918968;29;38359;-81
2023/08/01 05:58:35;;;;;;;11.32;4.50;;;17.00;99.90;;;;;;5743670;23;20021;-79
2023/08/01 06:01:03;;;;;;;13.85;4.25;;;17.00;99.90;;;;;;4943576;28;38376;-80
2023/08/01 06:09:00;;;;;;;12.57;4.07;;;17.10;99.90;;;;;;5023938;23;20063;-80
2023/08/01 06:11:44;;;;;;;14.85;3.90;;;17.10;99.90;;;;;;4933231;28;38592;-81
2023/08/01 06:14:10;;;;;;;13.55;3.85;;;17.10;99.90;;;;;;4945128;28;39480;-80
2023/08/01 06:24:33;;;;;;;12.98;3.90;;;17.30;99.90;;;;;;4997509;23;20627;-81
2023/08/01 06:27:00;;;;;;;11.18;3.58;;;17.50;99.90;;;;;;4931974;28;36875;-80
2023/08/01 06:29:26;;;;;;;13.45;4.53;;;17.80;99.90;;;;;;4927607;28;38816;-80
2023/08/01 06:31:52;;;;;;;11.90;4.10;;;18.00;99.90;;;;;;4909145;29;37827;-79
2023/08/01 06:34:18;;;;;;;14.65;3.97;;;18.10;99.90;;;;;;4912957;28;37732;-79
2023/08/01 06:36:44;;;;;;;12.30;3.75;;;18.40;99.90;;;;;;4929952;29;37122;-80
2023/08/01 06:39:11;;;;;;;14.52;3.78;;;18.40;99.90;;;;;;4928587;28;37738;-82
2023/08/01 06:41:37;;;;;;;11.57;4.00;;;18.20;99.90;;;;;;4928050;28;39426;-79
2023/08/01 06:44:03;;;;;;;17.58;4.18;;;17.90;99.90;;;;;;4931177;28;37209;-80
2023/08/01 06:46:29;;;;;;;10.35;4.28;;;17.80;99.90;;;;;;4931410;28;37350;-80
2023/08/01 06:48:56;;;;;;;9.02;3.30;;;17.90;99.90;;;;;;4931010;29;39579;-79
2023/08/01 06:51:22;;;;;;;12.95;3.80;;;17.70;99.90;;;;;;4918020;28;38097;-81
2023/08/01 06:53:48;;;;;;;12.50;3.72;;;17.50;99.90;;;;;;4914459;29;38964;-80
2023/08/01 06:56:14;;;;;;;11.35;3.63;;;17.20;99.90;;;;;;4924794;28;38281;-80
2023/08/01 06:58:40;;;;;;;13.25;3.88;;;17.00;99.90;;;;;;4917617;29;37969;-80
2023/08/01 07:01:06;;;;;;;11.25;3.38;;;17.20;99.90;;;;;;4913268;29;37800;-80
2023/08/01 07:03:32;;;;;;;12.77;3.50;;;17.40;99.90;;;;;;4911742;29;38755;-79
2023/08/01 07:05:58;;;;;;;21.83;4.47;;;17.60;99.90;;;;;;4913904;29;37422;-80
2023/08/01 07:08:25;;;;;;;13.68;3.70;;;17.60;99.90;;;;;;4909995;29;37495;-79
2023/08/01 07:10:51;;;;;;;15.45;4.53;;;17.50;99.90;;;;;;4912688;29;37812;-79
2023/08/01 07:13:19;;;;;;;12.20;4.32;;;17.40;99.90;;;;;;4940142;28;38921;-81
2023/08/01 07:15:45;;;;;;;10.65;3.30;;;17.40;99.90;;;;;;4925930;28;38196;-79
2023/08/01 07:18:11;;;;;;;12.77;3.58;;;17.70;99.90;;;;;;4912584;29;37739;-79
2023/08/01 07:20:37;;;;;;;9.27;2.97;;;18.00;99.90;;;;;;4912806;29;37916;-80
2023/08/01 07:23:03;;;;;;;12.93;3.53;;;18.20;99.90;;;;;;4911093;29;37290;-79
2023/08/01 07:25:30;;;;;;;10.52;2.65;;;18.40;99.90;;;;;;4930323;28;35913;-79
2023/08/01 07:27:56;;;;;;;15.00;3.33;;;18.40;99.90;;;;;;4921883;28;37856;-84
2023/08/01 07:30:22;;;;;;;9.05;3.03;;;18.50;99.90;;;;;;4910359;29;38069;-82
2023/08/01 07:32:48;;;;;;;9.38;2.67;;;18.50;99.90;;;;;;4924337;28;38259;-82
2023/08/01 07:35:14;;;;;;;6.93;3.00;;;18.70;99.90;;;;;;4911041;29;35789;-79
2023/08/01 07:37:41;;;;;;;10.77;3.05;;;18.50;99.90;;;;;;4910540;29;37638;-83
2023/08/01 07:40:07;;;;;;;18.52;3.55;;;18.10;99.90;;;;;;4943937;28;37503;-79
2023/08/01 07:42:34;;;;;;;10.75;2.88;;;17.80;99.90;;;;;;4921765;29;38489;-82
2023/08/01 07:45:00;;;;;;;9.63;3.63;;;17.40;99.90;;;;;;4914796;29;36189;-82
2023/08/01 07:47:26;;;;;;;17.02;4.15;;;17.10;99.90;;;;;;4939110;28;37642;-78
2023/08/01 07:49:54;;;;;;;18.05;4.57;;;16.90;99.90;;;;;;4928428;28;37791;-80
2023/08/01 07:52:20;;;;;;;11.55;3.92;;;16.80;99.90;;;;;;4938221;29;38743;-79
2023/08/01 07:54:46;;;;;;;13.27;3.50;;;17.20;99.90;;;;;;4924190;29;35946;-81
2023/08/01 07:57:12;;;;;;;14.95;3.55;;;17.40;99.90;;;;;;4919889;29;39037;-82
2023/08/01 07:59:39;;;;;;;14.75;3.92;;;17.80;99.90;;;;;;4914096;29;37574;-88
2023/08/01 08:02:11;;;;;;;12.07;3.85;;;18.10;99.90;;;;;;4918578;28;38934;-90
2023/08/01 08:04:37;;;;;;;14.38;3.45;;;18.50;99.90;;;;;;4922684;29;37834;-88
2023/08/01 08:07:04;;;;;;;14.65;3.45;;;18.70;99.90;;;;;;4912877;28;37675;-81
2023/08/01 08:09:30;;;;;;;13.52;3.72;;;18.80;99.90;;;;;;4934299;28;38061;-79
2023/08/01 08:11:59;;;;;;;8.40;3.17;;;18.80;99.90;;;;;;4908164;28;37329;-78
2023/08/01 08:14:26;;;;;;;9.32;2.97;;;18.50;99.90;;;;;;4944478;28;37108;-80
2023/08/01 08:16:52;;;;;;;11.93;3.35;;;18.40;99.90;;;;;;4909825;29;39864;-79
2023/08/01 08:19:18;;;;;;;9.63;3.38;;;18.30;99.90;;;;;;4926246;28;40027;-81
2023/08/01 08:21:44;;;;;;;15.25;3.90;;;18.00;99.90;;;;;;4934403;28;37423;-79
2023/08/01 08:24:10;;;;;;;12.15;3.70;;;17.80;99.90;;;;;;4905875;28;36210;-80
2023/08/01 08:26:39;;;;;;;10.68;3.28;;;17.70;99.90;;;;;;4907828;28;37948;-79
2023/08/01 08:29:07;;;;;;;17.13;3.75;;;17.70;99.90;;;;;;4911068;28;38894;-84
2023/08/01 08:31:43;;;;;;;12.75;3.55;;;17.70;99.90;;;;;;4937631;28;37247;-83
2023/08/01 08:34:09;;;;;;;13.55;3.40;;;17.60;99.90;;;;;;4927882;28;36816;-81
2023/08/01 08:42:49;;;;;;;10.73;3.28;;;17.60;99.90;;;;;;5422009;23;20055;-79
2023/08/01 08:45:20;;;;;;;12.25;3.67;;;17.60;99.90;;;;;;4954073;28;37099;-79
2023/08/01 08:47:58;;;;;;;12.10;3.40;;;17.70;99.90;;;;;;4955222;23;40028;-79
2023/08/01 08:51:01;;;;;;;9.38;3.13;;;17.90;99.90;;;;;;5265652;23;36126;-79
2023/08/01 08:54:39;;;;;;;10.35;3.25;;;18.10;99.90;;;;;;4910373;28;40023;-79
2023/08/01 08:57:31;;;;;;;8.02;3.25;;;18.10;99.90;;;;;;4851233;29;38415;-80
2023/08/01 09:00:33;;;;;;;11.10;3.13;;;18.10;99.90;;;;;;4864153;29;39975;-80
2023/08/01 09:03:19;;;;;;;13.18;3.35;;;18.30;99.90;;;;;;4847749;29;50367;-78
2023/08/01 09:06:33;;;;;;;9.00;2.97;;;18.50;99.90;;;;;;4852985;29;40021;-80
2023/08/01 09:09:32;;;;;;;14.10;3.20;;;19.10;99.90;;;;;;4803333;29;50233;-80
2023/08/01 09:12:18;;;;;;;13.25;2.95;;;19.70;99.90;;;;;;4850327;29;49194;-79
2023/08/01 09:23:35;;;;;;;10.95;2.72;;;20.10;99.90;;;;;;5983308;23;20023;-80
2023/08/01 09:26:14;;;;;;;13.93;2.85;;;20.30;99.90;;;;;;5105066;23;37391;-80
2023/08/01 09:29:34;;;;;;;12.25;3.25;;;20.50;99.90;;;;;;4951748;28;38786;-81
2023/08/01 09:35:46;;;;;;;12.55;2.90;;;19.70;99.90;;;;;;4961160;28;49934;-78
2023/08/01 09:38:15;;;;;;;13.35;3.00;;;19.60;99.90;;;;;;4917692;28;39101;-78
2023/08/01 09:41:29;;;;;;;9.65;3.25;;;19.50;99.90;;;;;;4913294;28;38922;-79
2023/08/01 09:48:14;;;;;;;;;;;;;;;;;;;;;
2023/08/01 09:51:22;;;;;;;10.02;2.67;;;20.30;99.90;;;;;;4842962;29;38511;-79
2023/08/01 09:54:09;;;;;;;11.32;2.92;;;20.20;99.90;;;;;;5601346;23;50171;-80
2023/08/01 09:57:27;;;;;;;9.07;2.60;;;19.60;99.90;;;;;;4881464;29;50358;-80
2023/08/01 10:00:19;;;;;;;8.77;2.60;;;20.10;99.90;;;;;;4887770;29;40120;-79
2023/08/01 10:03:48;;;;;;;10.68;2.35;;;20.00;99.90;;;;;;4886615;28;49249;-80
2023/08/01 10:07:02;;;;;;;6.93;2.47;;;19.90;99.90;;;;;;4948466;28;40184;-81
2023/08/01 10:12:09;;;;;;;12.00;3.15;;;19.80;99.90;;;;;;5374221;23;20041;-78
2023/08/01 10:15:14;;;;;;;8.18;2.28;;;20.20;99.90;;;;;;4897935;28;39567;-79
2023/08/01 10:18:07;;;;;;;8.00;2.17;;;20.70;99.90;;;;;;4932158;28;39514;-80
2023/08/01 10:21:23;;;;;;;9.68;2.15;;;20.90;99.90;;;;;;4908596;28;49018;-80
2023/08/01 10:28:57;;;;;;;17.83;3.10;;;20.30;99.90;;;;;;4899286;29;40585;-80
2023/08/01 10:32:31;;;;;;;10.98;2.95;;;19.90;99.90;;;;;;4802551;29;39780;-80
2023/08/01 10:43:31;;;;;;;6.75;2.05;;;20.20;99.90;;;;;;4900549;29;20037;-79
2023/08/01 10:46:20;;;;;;;10.35;2.22;;;19.90;99.90;;;;;;4909134;29;37461;-80
2023/08/01 10:52:30;;;;;;;6.82;2.03;;;20.10;99.90;;;;;;4869310;29;50654;-80
2023/08/01 10:55:16;;;;;;;10.32;2.35;;;20.10;99.90;;;;;;4890470;29;39846;-80
2023/08/01 10:58:12;;;;;;;9.23;2.25;;;20.40;99.90;;;;;;4857793;29;49794;-80
2023/08/01 11:01:19;;;;;;;8.40;2.42;;;20.50;99.90;;;;;;4873995;29;50343;-80
2023/08/01 11:03:53;;;;;;;8.38;2.28;;;20.70;96.30;;;;;;4901726;29;39466;-79
2023/08/01 11:06:29;;;;;;;10.85;2.55;;;20.70;97.70;;;;;;4886438;29;37328;-80
2023/08/01 11:09:26;;;;;;;6.13;2.03;;;21.00;99.90;;;;;;4877772;29;38391;-80
2023/08/01 11:12:23;;;;;;;8.57;2.30;;;21.10;93.60;;;;;;4912197;29;50170;-80
2023/08/01 11:14:58;;;;;;;6.68;2.30;;;21.10;99.90;;;;;;4881947;29;49076;-79
2023/08/01 11:18:01;;;;;;;8.43;2.42;;;20.70;95.40;;;;;;4881220;29;36718;-78
2023/08/01 11:20:32;;;;;;;11.65;2.70;;;20.70;99.90;;;;;;4892386;29;48161;-80
2023/08/01 11:23:04;;;;;;;11.27;2.83;;;20.40;99.90;;;;;;4880517;29;38024;-80
2023/08/01 11:25:49;;;;;;;10.77;2.63;;;20.60;99.90;;;;;;4890239;29;48387;-80
2023/08/01 11:28:45;;;;;;;13.05;2.45;;;20.80;99.90;;;;;;4881063;29;38813;-79
2023/08/01 11:31:20;;;;;;;6.72;2.03;;;20.90;93.80;;;;;;4929131;23;38340;-78
2023/08/01 11:33:56;;;;;;;8.35;2.00;;;20.90;78.20;;;;;;4926989;29;39294;-79
2023/08/01 11:36:30;;;;;;;8.55;2.20;;;21.20;95.50;;;;;;4903449;29;38792;-79
2023/08/01 11:39:04;;;;;;;5.43;1.60;;;21.10;67.30;;;;;;4916917;29;38726;-79
2023/08/01 11:41:31;;;;;;;9.45;1.80;;;21.30;82.00;;;;;;4912829;29;49916;-77
2023/08/01 11:44:03;;;;;;;8.25;1.80;;;21.20;98.40;;;;;;4903676;29;38997;-79
2023/08/01 11:46:33;;;;;;;11.05;2.53;;;21.50;82.20;;;;;;4904831;29;47353;-78
2023/08/01 11:49:00;;;;;;;9.90;1.85;;;21.10;58.60;;;;;;4923087;29;40157;-79
2023/08/01 11:51:28;;;;;;;8.80;1.98;;;20.70;84.20;;;;;;4924971;29;48226;-80
2023/08/01 11:54:04;;;;;;;9.82;2.20;;;20.50;93.70;;;;;;4912275;29;38678;-80
2023/08/01 11:56:31;;;;;;;7.07;2.08;;;20.30;99.90;;;;;;4888989;29;46986;-80
2023/08/01 11:58:58;;;;;;;13.82;2.55;;;20.30;99.90;;;;;;4901582;29;39380;-80
2023/08/01 12:01:24;;;;;;;5.53;1.90;;;20.70;99.90;;;;;;4896768;29;37667;-80
2023/08/01 12:03:58;;;;;;;9.15;2.50;;;21.10;91.30;;;;;;4905575;29;39079;-80
2023/08/01 12:06:24;;;;;;;8.27;1.95;;;21.40;81.70;;;;;;4889089;29;39437;-80
2023/08/01 12:08:53;;;;;;;6.20;1.80;;;21.50;65.10;;;;;;4916701;29;20045;-80
2023/08/01 12:11:29;;;;;;;8.68;2.13;;;21.80;71.50;;;;;;4886361;29;38198;-80
2023/08/01 12:14:13;;;;;;;5.90;1.60;;;21.40;72.80;;;;;;4916345;29;37665;-79
2023/08/01 12:16:41;;;;;;;7.72;1.80;;;20.90;91.20;;;;;;4901825;29;47222;-80
2023/08/01 12:19:08;;;;;;;6.75;1.98;;;20.80;96.10;;;;;;4903574;29;38416;-80
2023/08/01 12:21:35;;;;;;;6.72;1.70;;;21.30;92.00;;;;;;4894015;29;38655;-81
2023/08/01 12:24:02;;;;;;;8.95;2.85;;;21.50;76.30;;;;;;4894770;29;38631;-79
2023/08/01 12:26:29;;;;;;;8.60;1.90;;;21.10;81.20;;;;;;4914384;29;39005;-80
2023/08/01 12:28:55;;;;;;;12.35;2.38;;;21.30;81.70;;;;;;4888484;29;37396;-81
2023/08/01 12:31:23;;;;;;;11.13;1.92;;;21.40;76.90;;;;;;4907594;29;36542;-81
2023/08/01 12:33:50;;;;;;;8.65;2.33;;;21.00;90.10;;;;;;4899886;29;37557;-80
2023/08/01 12:36:17;;;;;;;9.45;2.22;;;20.60;99.10;;;;;;4894631;29;37592;-80
2023/08/01 12:38:43;;;;;;;8.35;2.65;;;20.40;99.90;;;;;;4914344;29;39510;-80
2023/08/01 12:41:09;;;;;;;7.75;2.67;;;20.30;99.90;;;;;;4890746;29;37168;-81
2023/08/01 12:43:36;;;;;;;8.30;2.28;;;20.30;99.90;;;;;;4905055;29;38701;-80
2023/08/01 12:46:10;;;;;;;7.38;2.25;;;20.50;99.90;;;;;;4892122;29;39874;-78
2023/08/01 12:48:36;;;;;;;7.95;2.10;;;20.90;99.90;;;;;;4896883;29;37701;-80
2023/08/01 12:51:02;;;;;;;8.57;2.08;;;20.50;89.20;;;;;;4914787;29;38919;-79
2023/08/01 12:53:29;;;;;;;6.97;2.42;;;20.40;97.70;;;;;;4913446;29;38405;-80
2023/08/01 12:56:03;;;;;;;9.75;2.53;;;20.60;98.60;;;;;;4899752;29;37805;-80
2023/08/01 12:59:06;;;;;;;7.43;2.28;;;21.10;94.20;;;;;;4880909;29;39224;-81
2023/08/01 13:01:54;;;;;;;9.88;1.80;;;21.10;91.70;;;;;;4892407;29;49374;-80
2023/08/01 13:05:43;;;;;;;6.82;2.08;;;20.70;93.60;;;;;;4897092;29;40353;-79
2023/08/01 13:08:53;;;;;;;7.32;1.80;;;20.60;96.30;;;;;;4788703;29;40320;-80
2023/08/01 13:12:18;;;;;;;9.77;2.20;;;20.90;98.90;;;;;;4809626;29;38311;-80
2023/08/01 13:19:01;;;;;;;8.45;2.10;;;20.70;87.40;;;;;;4792001;29;50611;-79
2023/08/01 13:22:06;;;;;;;7.82;1.95;;;20.40;95.20;;;;;;4809988;29;48637;-82
2023/08/01 13:25:20;;;;;;;9.38;2.33;;;20.30;99.90;;;;;;4842124;29;38487;-80
2023/08/01 13:28:58;;;;;;;7.78;2.22;;;20.20;99.90;;;;;;4799168;29;49619;-80
2023/08/01 13:32:38;;;;;;;8.85;2.15;;;20.10;99.90;;;;;;4829369;29;40244;-80
2023/08/01 13:38:09;;;;;;;5.95;1.95;;;20.70;99.90;;;;;;5379515;23;20051;-80
2023/08/01 13:41:09;;;;;;;5.25;1.63;;;21.00;90.40;;;;;;4975157;28;38829;-81
2023/08/01 13:43:49;;;;;;;;;;;21.10;91.20;;;;;;4940261;28;37249;-79
2023/08/01 13:47:28;;;;;;;7.82;2.42;;;21.20;79.00;;;;;;4905000;28;40200;-81
2023/08/01 13:50:33;;;;;;;9.25;2.08;;;21.20;91.20;;;;;;4876832;29;49411;-80
2023/08/01 13:53:16;;;;;;;5.68;2.05;;;21.50;87.10;;;;;;4849612;29;48775;-80
2023/08/01 13:56:22;;;;;;;11.38;2.08;;;21.30;87.10;;;;;;4830898;29;50217;-81
2023/08/01 13:59:01;;;;;;;7.72;1.58;;;21.30;82.20;;;;;;4833153;29;49688;-80
2023/08/01 14:01:40;;;;;;;7.88;2.30;;;21.10;99.90;;;;;;4870377;29;50084;-80
2023/08/01 14:05:04;;;;;;;10.55;2.50;;;21.30;91.60;;;;;;4853810;29;37953;-80
2023/08/01 14:07:52;;;;;;;5.25;1.67;;;21.60;78.60;;;;;;4892342;28;39143;-80
2023/08/01 14:10:40;;;;;;;7.03;2.15;;;21.30;84.80;;;;;;4897419;28;38239;-80
2023/08/01 14:13:13;;;;;;;7.80;1.80;;;21.30;79.00;;;;;;4900424;29;38862;-79
2023/08/01 14:16:04;;;;;;;8.02;1.92;;;21.60;74.60;;;;;;4908183;29;37984;-80
2023/08/01 14:18:46;;;;;;;4.55;1.58;;;21.70;82.10;;;;;;4898523;28;49036;-80
2023/08/01 14:21:27;;;;;;;7.40;1.85;;;21.30;62.60;;;;;;4890191;29;37930;-81
2023/08/01 14:24:47;;;;;;;8.45;1.77;;;20.80;84.20;;;;;;4894312;29;38766;-80
2023/08/01 14:27:47;;;;;;;10.85;2.03;;;20.70;89.10;;;;;;4842942;29;49459;-80
2023/08/01 14:30:47;;;;;;;6.05;1.88;;;20.60;90.40;;;;;;4834576;29;38840;-81
2023/08/01 14:36:30;;;;;;;8.55;1.90;;;20.90;99.90;;;;;;4839111;29;39539;-80
2023/08/01 14:39:13;;;;;;;5.53;1.55;;;21.30;76.80;;;;;;4857482;29;37628;-81
2023/08/01 14:41:51;;;;;;;5.82;1.52;;;21.40;57.40;;;;;;4856314;29;39979;-81
2023/08/01 14:44:21;;;;;;;5.78;1.48;;;21.10;84.00;;;;;;4852467;29;40133;-81
2023/08/01 14:47:06;;;;;;;7.68;1.50;;;20.70;67.30;;;;;;4868666;29;37742;-81
2023/08/01 14:49:56;;;;;;;6.65;1.58;;;20.50;72.10;;;;;;4877864;29;48869;-81
2023/08/01 14:52:44;;;;;;;6.43;1.30;;;20.40;90.80;;;;;;4866689;29;48095;-80
2023/08/01 14:55:14;;;;;;;4.50;1.33;;;20.40;79.00;;;;;;4870828;29;39000;-80
2023/08/01 14:58:10;;;;;;;6.00;1.90;;;20.40;78.40;;;;;;4889539;29;38675;-81
2023/08/01 15:00:41;;;;;;;6.38;1.40;;;20.50;91.10;;;;;;4851016;29;47354;-80
2023/08/01 15:03:12;;;;;;;6.70;1.65;;;20.60;90.10;;;;;;4870556;29;39189;-80
2023/08/01 15:06:28;;;;;;;9.52;1.80;;;20.60;80.50;;;;;;4889105;29;38691;-81
2023/08/01 15:09:26;;;;;;;8.88;2.83;;;20.60;83.00;;;;;;4865851;29;49608;-80
2023/08/01 15:11:56;;;;;;;6.13;1.63;;;20.50;69.70;;;;;;4856545;29;49258;-79
2023/08/01 15:14:31;;;;;;;6.53;2.00;;;20.20;65.50;;;;;;4855954;29;48479;-79
2023/08/01 15:17:04;;;;;;;4.07;1.40;;;20.20;91.10;;;;;;4904409;28;37760;-79
2023/08/01 15:19:34;;;;;;;6.88;1.65;;;20.20;87.70;;;;;;4901999;28;47655;-80
2023/08/01 15:22:09;;;;;;;9.00;2.10;;;20.20;91.90;;;;;;4909628;29;37123;-80
2023/08/01 15:24:42;;;;;;;7.22;1.75;;;20.30;89.70;;;;;;4893044;29;49327;-78
2023/08/01 15:27:21;;;;;;;4.65;1.70;;;20.30;88.30;;;;;;4917567;28;39816;-81
2023/08/01 15:30:39;;;;;;;9.57;1.77;;;20.30;90.50;;;;;;4938482;28;39986;-80
2023/08/01 15:33:10;;;;;;;5.53;1.58;;;20.30;74.90;;;;;;4926485;28;48796;-80
2023/08/01 15:35:40;;;;;;;6.15;1.42;;;20.30;85.70;;;;;;4937703;28;40592;-79
2023/08/01 15:38:07;;;;;;;9.95;2.00;;;20.40;81.70;;;;;;4918412;28;36631;-80
2023/08/01 15:40:36;;;;;;;2.17;1.27;;;20.40;72.50;;;;;;4942262;28;38397;-80
2023/08/01 15:43:07;;;;;;;7.05;1.45;;;20.40;89.10;;;;;;4957137;28;37899;-80
2023/08/01 15:45:42;;;;;;;5.93;1.48;;;20.30;71.30;;;;;;4907388;28;37863;-80
2023/08/01 15:48:21;;;;;;;6.20;1.75;;;20.30;72.40;;;;;;4919995;28;37960;-79
2023/08/01 15:50:59;;;;;;;6.70;1.58;;;20.20;71.60;;;;;;4892343;28;38338;-79
2023/08/01 15:53:28;;;;;;;7.10;1.67;;;20.20;87.60;;;;;;4935183;28;36744;-82
2023/08/01 15:56:11;;;;;;;7.82;1.50;;;20.20;73.70;;;;;;4953004;28;38997;-79
2023/08/01 15:59:05;;;;;;;6.72;1.55;;;20.20;78.80;;;;;;4903415;29;47442;-80
2023/08/01 16:01:39;;;;;;;4.85;1.50;;;20.10;80.00;;;;;;4932690;28;49937;-80
2023/08/01 16:04:42;;;;;;;4.05;1.52;;;20.00;90.30;;;;;;4920016;28;36984;-80
2023/08/01 16:07:10;;;;;;;5.10;1.33;;;20.00;97.70;;;;;;4928565;28;38803;-80
2023/08/01 16:09:58;;;;;;;4.13;1.35;;;19.90;93.70;;;;;;4923821;28;38250;-80
2023/08/01 16:12:29;;;;;;;5.68;1.42;;;20.00;91.30;;;;;;4925625;28;38258;-80
2023/08/01 16:15:15;;;;;;;8.77;1.85;;;20.10;99.50;;;;;;4956748;28;36847;-80
2023/08/01 16:18:10;;;;;;;8.77;1.45;;;20.30;99.90;;;;;;4952483;28;50104;-80
2023/08/01 16:21:01;;;;;;;7.95;1.83;;;20.30;94.60;;;;;;4960632;28;48174;-81
2023/08/01 16:23:50;;;;;;;6.07;1.65;;;20.30;99.70;;;;;;4905672;28;50934;-80
2023/08/01 16:26:46;;;;;;;7.97;1.80;;;20.30;91.70;;;;;;4918958;28;36884;-80
2023/08/01 16:29:37;;;;;;;10.77;2.15;;;20.20;91.60;;;;;;4905750;28;48902;-80
2023/08/01 16:32:11;;;;;;;4.97;1.40;;;20.20;83.70;;;;;;4910686;28;38076;-80
2023/08/01 16:34:51;;;;;;;4.78;1.73;;;20.20;90.70;;;;;;4950829;28;39833;-81
2023/08/01 16:37:23;;;;;;;4.75;1.60;;;20.10;83.30;;;;;;4935068;28;38306;-82
2023/08/01 16:39:52;;;;;;;;;;;20.10;88.60;;;;;;4939052;29;40151;-81
2023/08/01 16:42:34;;;;;;;3.78;1.25;;;20.00;92.00;;;;;;4929112;28;40539;-80
2023/08/01 16:45:26;;;;;;;5.50;1.50;;;20.00;82.80;;;;;;4925396;28;38830;-81
2023/08/01 16:48:03;;;;;;;6.35;1.38;;;20.00;91.30;;;;;;4920751;28;38710;-81
2023/08/01 16:51:01;;;;;;;5.65;1.90;;;19.90;85.90;;;;;;4913253;28;50197;-80
2023/08/01 16:53:39;;;;;;;6.88;1.75;;;19.80;91.60;;;;;;4929797;28;50010;-81
2023/08/01 16:56:24;;;;;;;5.68;1.70;;;19.80;91.10;;;;;;4914254;29;39681;-81
2023/08/01 16:59:24;;;;;;;7.05;1.58;;;19.70;93.10;;;;;;4925335;29;37628;-81
2023/08/01 17:02:01;;;;;;;6.18;2.35;;;19.80;97.40;;;;;;4920350;29;47700;-81
2023/08/01 17:05:13;;;;;;;7.50;1.63;;;19.80;95.40;;;;;;4916230;29;48825;-81
2023/08/01 17:07:54;;;;;;;8.50;1.65;;;19.80;99.90;;;;;;4887221;29;47922;-80
2023/08/01 17:10:27;;;;;;;9.27;1.63;;;19.80;98.70;;;;;;4924030;28;36569;-80
2023/08/01 17:13:11;;;;;;;7.13;1.85;;;19.80;99.90;;;;;;4918298;29;38703;-80
2023/08/01 17:15:56;;;;;;;5.03;1.85;;;19.80;99.90;;;;;;4895726;28;47299;-80
2023/08/01 17:18:54;;;;;;;9.68;2.08;;;19.70;99.90;;;;;;4904413;29;38198;-80
2023/08/01 17:21:52;;;;;;;12.40;2.03;;;19.70;99.90;;;;;;4914981;28;37456;-80
2023/08/01 17:24:42;;;;;;;14.25;2.50;;;19.60;99.90;;;;;;4902609;28;39553;-80
2023/08/01 17:27:42;;;;;;;10.88;2.20;;;19.40;99.90;;;;;;4886832;28;39657;-81
2023/08/01 17:30:33;;;;;;;5.57;1.90;;;19.40;99.90;;;;;;4918646;28;50433;-80
2023/08/01 17:37:10;;;;;;;8.55;2.38;;;19.50;99.90;;;;;;4951722;28;49993;-79
2023/08/01 17:40:03;;;;;;;20.60;2.40;;;19.40;99.90;;;;;;4914461;28;50213;-80
2023/08/01 17:42:55;;;;;;;9.32;2.20;;;19.40;99.90;;;;;;4934611;28;38516;-79
2023/08/01 17:46:01;;;;;;;8.63;2.50;;;19.30;99.90;;;;;;4923013;28;38624;-79
2023/08/01 17:48:37;;;;;;;8.25;2.30;;;19.30;99.90;;;;;;4922559;28;48689;-80
2023/08/01 17:51:46;;;;;;;7.18;2.00;;;19.40;99.90;;;;;;4924387;28;39104;-80
2023/08/01 17:54:37;;;;;;;9.30;2.40;;;19.30;99.90;;;;;;4937449;28;39928;-80
2023/08/01 17:57:43;;;;;;;10.07;2.47;;;19.40;99.90;;;;;;4911871;28;39184;-80
2023/08/01 18:00:41;;;;;;;9.52;2.10;;;19.30;99.90;;;;;;4908498;28;41189;-79
2023/08/01 18:03:48;;;;;;;7.70;1.98;;;19.20;99.90;;;;;;4901799;28;39656;-81
2023/08/01 18:06:44;;;;;;;12.52;2.38;;;19.20;99.90;;;;;;4930292;28;38533;-79
2023/08/01 18:09:45;;;;;;;14.35;2.47;;;19.20;99.90;;;;;;4922079;28;38247;-79
2023/08/01 18:12:55;;;;;;;7.35;2.63;;;19.20;99.90;;;;;;4851663;29;48993;-80
2023/08/01 18:15:59;;;;;;;9.45;2.83;;;19.20;99.90;;;;;;4852938;29;38533;-79
2023/08/01 18:19:01;;;;;;;12.18;2.25;;;19.20;99.90;;;;;;4847028;29;49924;-79
2023/08/01 18:22:22;;;;;;;13.82;3.10;;;19.10;99.90;;;;;;4841301;29;50287;-79